sensor_id;sensor_type;location;lat;lon;timestamp;pressure;altitude;pressure_sealevel;temperature;humidity
79316;BME280;68779;50.036;19.964;2023-05-21T00:11:39;102200.24;;;15.60;76.55
79316;BME280;68779;50.036;19.964;2023-05-21T01:42:53;102169.37;;;16.33;76.18
79316;BME280;68779;50.036;19.964;2023-05-21T02:43:36;102134.80;;;16.03;77.55
79316;BME280;68779;50.036;19.964;2023-05-21T03:13:50;102135.44;;;15.68;78.38
79316;BME280;68779;50.036;19.964;2023-05-21T03:44:04;102128.52;;;15.64;78.21
79316;BME280;68779;50.036;19.964;2023-05-21T04:14:17;102136.30;;;15.78;77.46
79316;BME280;68779;50.036;19.964;2023-05-21T04:44:32;102136.09;;;16.08;75.81
79316;BME280;68779;50.036;19.964;2023-05-21T05:14:45;102131.35;;;16.74;71.27
79316;BME280;68779;50.036;19.964;2023-05-21T05:44:59;102125.30;;;16.98;68.07
79316;BME280;68779;50.036;19.964;2023-05-21T06:45:37;102110.86;;;18.44;63.83
79316;BME280;68779;50.036;19.964;2023-05-21T07:15:51;102086.51;;;19.15;62.69
79316;BME280;68779;50.036;19.964;2023-05-21T07:46:05;102075.46;;;20.11;60.49
79316;BME280;68779;50.036;19.964;2023-05-21T08:16:18;102045.30;;;20.79;59.46
79316;BME280;68779;50.036;19.964;2023-05-21T08:46:35;102044.09;;;21.73;57.80
79316;BME280;68779;50.036;19.964;2023-05-21T09:16:59;102028.61;;;22.15;54.93
79316;BME280;68779;50.036;19.964;2023-05-21T10:03:32;102003.84;;;23.63;49.67
79316;BME280;68779;50.036;19.964;2023-05-21T10:33:59;101974.52;;;24.70;46.32
79316;BME280;68779;50.036;19.964;2023-05-21T11:04:14;101959.41;;;26.10;45.37
79316;BME280;68779;50.036;19.964;2023-05-21T11:34:54;101942.95;;;26.91;42.65
79316;BME280;68779;50.036;19.964;2023-05-21T12:05:00;101930.18;;;27.76;36.75
79316;BME280;68779;50.036;19.964;2023-05-21T12:35:21;101919.41;;;27.97;36.02
79316;BME280;68779;50.036;19.964;2023-05-21T13:05:39;101895.66;;;28.72;34.11
79316;BME280;68779;50.036;19.964;2023-05-21T13:35:54;101877.41;;;29.34;30.67
79316;BME280;68779;50.036;19.964;2023-05-21T14:06:09;101853.12;;;29.86;30.78
79316;BME280;68779;50.036;19.964;2023-05-21T14:36:24;101833.52;;;32.35;27.35
79316;BME280;68779;50.036;19.964;2023-05-21T15:06:40;101844.81;;;32.40;27.48
79316;BME280;68779;50.036;19.964;2023-05-21T15:36:57;101839.91;;;28.53;31.74
79316;BME280;68779;50.036;19.964;2023-05-21T16:07:10;101844.59;;;25.69;37.29
79316;BME280;68779;50.036;19.964;2023-05-21T16:37:28;101850.03;;;24.92;40.07
79316;BME280;68779;50.036;19.964;2023-05-21T17:07:47;101860.77;;;24.21;40.44
79316;BME280;68779;50.036;19.964;2023-05-21T17:38:01;101861.55;;;23.61;40.15
79316;BME280;68779;50.036;19.964;2023-05-21T18:38:46;101896.80;;;22.28;44.35
79316;BME280;68779;50.036;19.964;2023-05-21T19:09:00;101911.45;;;21.63;46.87
79316;BME280;68779;50.036;19.964;2023-05-21T19:39:17;101928.81;;;20.82;47.96
79316;BME280;68779;50.036;19.964;2023-05-21T20:09:31;101918.87;;;19.73;52.36
79316;BME280;68779;50.036;19.964;2023-05-21T20:39:48;101950.66;;;18.56;56.67
79316;BME280;68779;50.036;19.964;2023-05-21T21:10:02;101944.54;;;17.87;59.37
79316;BME280;68779;50.036;19.964;2023-05-21T21:40:22;101956.09;;;17.13;61.11
79316;BME280;68779;50.036;19.964;2023-05-21T22:10:36;101954.08;;;16.35;63.05
79316;BME280;68779;50.036;19.964;2023-05-21T22:40:50;101956.82;;;15.90;62.99
79316;BME280;68779;50.036;19.964;2023-05-21T23:11:05;101944.27;;;15.42;64.52
79316;BME280;68779;50.036;19.964;2023-05-21T23:41:19;101939.19;;;14.72;66.02
